createdAt,value
2023-02-02T00:02:02.529Z,1.67
2023-02-02T00:04:37.967Z,1.90
2023-02-02T00:07:08.636Z,1.70
2023-02-02T00:09:38.874Z,2.92
2023-02-02T00:12:08.832Z,2.35
2023-02-02T00:14:38.850Z,1.58
2023-02-02T00:17:11.783Z,1.38
2023-02-02T00:19:41.909Z,1.92
2023-02-02T00:22:11.744Z,1.30
2023-02-02T00:24:41.762Z,1.30
2023-02-02T00:27:12.077Z,1.33
2023-02-02T00:29:42.116Z,1.38
2023-02-02T00:32:12.134Z,1.58
2023-02-02T00:34:42.446Z,1.23
2023-02-02T00:37:12.484Z,1.30
2023-02-02T00:39:42.509Z,1.60
2023-02-02T00:42:15.521Z,1.38
2023-02-02T00:45:03.936Z,1.55
2023-02-02T00:47:34.140Z,1.50
2023-02-02T00:50:04.271Z,1.77
2023-02-02T00:52:34.378Z,2.47
2023-02-02T00:55:04.561Z,1.85
2023-02-02T00:57:34.594Z,1.60
2023-02-02T01:00:05.511Z,1.50
2023-02-02T01:02:37.163Z,1.42
2023-02-02T01:05:07.428Z,1.35
2023-02-02T01:07:37.693Z,1.50
2023-02-02T01:10:10.788Z,1.58
2023-02-02T01:12:41.175Z,1.33
2023-02-02T01:15:12.654Z,1.17
2023-02-02T01:17:43.168Z,1.30
2023-02-02T01:20:18.615Z,1.15
2023-02-02T01:22:50.243Z,1.60
2023-02-02T01:25:20.353Z,2.05
2023-02-02T01:27:50.527Z,1.30
2023-02-02T01:30:20.601Z,1.20
2023-02-02T01:32:51.271Z,1.27
2023-02-02T01:35:23.389Z,1.42
2023-02-02T01:37:53.683Z,1.50
2023-02-02T01:40:23.851Z,1.80
2023-02-02T01:42:53.842Z,1.25
2023-02-02T01:45:29.933Z,1.52
2023-02-02T01:48:01.425Z,1.50
2023-02-02T01:50:35.954Z,1.63
2023-02-02T01:53:08.058Z,1.90
2023-02-02T01:55:41.066Z,1.23
2023-02-02T01:58:28.901Z,1.75
2023-02-02T02:00:58.953Z,1.90
2023-02-02T02:03:33.178Z,2.17
2023-02-02T02:06:11.284Z,2.03
2023-02-02T02:08:56.189Z,1.75
2023-02-02T02:11:27.260Z,1.40
2023-02-02T02:14:18.177Z,1.45
2023-02-02T02:17:15.993Z,2.15
2023-02-02T02:20:36.149Z,1.15
2023-02-02T02:23:49.866Z,1.13
2023-02-02T02:26:48.293Z,0.90
2023-02-02T02:29:21.054Z,1.00
2023-02-02T02:32:14.940Z,0.93
2023-02-02T02:35:19.900Z,1.10
2023-02-02T02:37:56.187Z,1.02
2023-02-02T02:40:42.516Z,1.00
2023-02-02T02:43:28.695Z,1.10
2023-02-02T02:45:59.298Z,1.10
2023-02-02T02:48:31.136Z,1.23
2023-02-02T02:51:30.566Z,0.88
2023-02-02T02:54:00.605Z,1.15
2023-02-02T02:56:37.184Z,1.23
2023-02-02T02:59:11.851Z,1.33
2023-02-02T03:01:56.991Z,1.30
2023-02-02T03:04:51.904Z,1.25
2023-02-02T03:07:31.408Z,1.17
2023-02-02T03:10:04.171Z,1.60
2023-02-02T03:12:34.315Z,1.40
2023-02-02T03:15:07.853Z,1.90
2023-02-02T03:17:37.986Z,1.60
2023-02-02T03:20:08.369Z,1.70
2023-02-02T03:22:38.453Z,1.70
2023-02-02T03:25:12.232Z,2.15
2023-02-02T03:27:42.340Z,1.60
2023-02-02T03:30:15.203Z,2.15
2023-02-02T03:32:46.826Z,1.75
2023-02-02T03:35:18.133Z,1.55
2023-02-02T03:37:48.656Z,1.55
2023-02-02T03:40:19.117Z,1.70
2023-02-02T03:42:49.071Z,2.28
2023-02-02T03:45:19.094Z,2.03
2023-02-02T03:47:49.196Z,2.33
2023-02-02T03:50:19.449Z,2.20
2023-02-02T03:52:49.473Z,2.03
2023-02-02T03:55:19.690Z,2.30
2023-02-02T03:57:50.293Z,2.30
2023-02-02T04:00:20.925Z,2.13
2023-02-02T04:02:51.098Z,2.33
2023-02-02T04:05:21.254Z,2.42
2023-02-02T04:07:51.287Z,2.40
2023-02-02T04:10:21.402Z,2.50
2023-02-02T04:12:52.169Z,2.95
2023-02-02T04:15:22.387Z,2.72
2023-02-02T04:17:52.691Z,3.20
2023-02-02T04:20:22.684Z,2.67
2023-02-02T04:22:52.737Z,3.05
2023-02-02T04:25:23.402Z,2.83
2023-02-02T04:27:53.651Z,2.60
2023-02-02T04:30:23.997Z,2.95
2023-02-02T04:32:54.003Z,3.03
2023-02-02T04:35:24.621Z,2.85
2023-02-02T04:37:56.546Z,2.50
2023-02-02T04:40:29.219Z,2.13
2023-02-02T04:42:59.888Z,2.20
2023-02-02T04:45:29.939Z,2.38
2023-02-02T04:47:59.781Z,2.65
2023-02-02T04:50:29.683Z,2.92
2023-02-02T04:53:00.257Z,2.83
2023-02-02T04:55:30.251Z,2.08
2023-02-02T04:58:00.416Z,2.20
2023-02-02T05:00:30.549Z,2.35
2023-02-02T05:03:01.420Z,2.70
2023-02-02T05:05:31.661Z,2.53
2023-02-02T05:08:01.608Z,2.25
2023-02-02T05:10:31.580Z,2.63
2023-02-02T05:13:01.703Z,2.20
2023-02-02T05:15:32.095Z,2.35
2023-02-02T05:18:02.125Z,2.20
2023-02-02T05:20:31.925Z,2.63
2023-02-02T05:23:02.952Z,2.65
2023-02-02T05:25:33.042Z,2.28
2023-02-02T05:28:04.106Z,1.95
2023-02-02T05:30:34.389Z,2.13
2023-02-02T05:33:06.138Z,1.80
2023-02-02T05:35:35.964Z,1.75
2023-02-02T05:38:05.871Z,2.10
2023-02-02T05:40:35.674Z,1.80
2023-02-02T05:43:05.620Z,1.73
2023-02-02T05:45:35.809Z,1.90
2023-02-02T05:48:05.897Z,1.85
2023-02-02T05:50:35.843Z,1.38
2023-02-02T05:53:06.951Z,3.17
2023-02-02T05:55:36.921Z,2.67
2023-02-02T05:58:09.000Z,2.03
2023-02-02T06:00:39.742Z,1.60
2023-02-02T06:03:10.260Z,2.38
2023-02-02T06:05:40.916Z,2.25
2023-02-02T06:08:11.056Z,1.67
2023-02-02T06:10:43.592Z,1.85
2023-02-02T06:13:15.086Z,2.10
2023-02-02T06:15:44.995Z,1.65
2023-02-02T06:18:15.132Z,1.60
2023-02-02T06:20:44.990Z,1.90
2023-02-02T06:23:14.948Z,1.63
2023-02-02T06:25:44.895Z,1.80
2023-02-02T06:28:14.844Z,1.92
2023-02-02T06:30:44.940Z,1.77
2023-02-02T06:33:15.840Z,1.73
2023-02-02T06:35:45.836Z,1.38
2023-02-02T06:38:15.772Z,1.60
2023-02-02T06:40:45.732Z,1.85
2023-02-02T06:43:17.541Z,1.58
2023-02-02T06:45:47.593Z,1.92
2023-02-02T06:48:17.523Z,2.20
2023-02-02T06:50:48.360Z,1.52
2023-02-02T06:53:23.491Z,1.45
2023-02-02T06:55:57.782Z,1.40
2023-02-02T06:58:27.920Z,1.40
2023-02-02T07:01:05.349Z,1.40
2023-02-02T07:03:36.458Z,1.73
2023-02-02T07:06:13.538Z,1.33
2023-02-02T07:08:44.204Z,1.25
2023-02-02T07:11:16.637Z,1.40
2023-02-02T07:13:48.713Z,0.95
2023-02-02T07:16:20.464Z,1.42
2023-02-02T07:18:50.595Z,1.27
2023-02-02T07:21:26.534Z,1.70
2023-02-02T07:23:56.523Z,1.52
2023-02-02T07:26:27.210Z,1.67
2023-02-02T07:28:57.255Z,1.70
2023-02-02T07:31:28.797Z,1.58
2023-02-02T07:33:58.821Z,1.80
2023-02-02T07:36:28.815Z,1.50
2023-02-02T07:38:59.026Z,1.00
2023-02-02T07:41:29.187Z,1.10
2023-02-02T07:43:59.154Z,1.17
2023-02-02T07:46:30.069Z,1.15
2023-02-02T07:49:00.273Z,1.50
2023-02-02T07:51:30.244Z,1.23
2023-02-02T07:54:01.155Z,1.00
2023-02-02T07:56:31.352Z,1.88
2023-02-02T07:59:01.309Z,1.40
2023-02-02T08:01:31.423Z,1.30
2023-02-02T08:04:04.672Z,1.33
2023-02-02T08:06:37.455Z,1.10
2023-02-02T08:09:10.082Z,1.55
2023-02-02T08:11:40.791Z,1.50
2023-02-02T08:14:15.052Z,1.45
2023-02-02T08:16:45.136Z,1.00
2023-02-02T08:19:15.308Z,1.13
2023-02-02T08:21:45.334Z,1.40
2023-02-02T08:24:15.280Z,1.27
2023-02-02T08:26:45.482Z,1.27
2023-02-02T08:29:19.343Z,0.93
2023-02-02T08:31:49.548Z,1.20
2023-02-02T08:34:19.568Z,1.13
2023-02-02T08:36:49.442Z,1.23
2023-02-02T08:39:19.228Z,1.17
2023-02-02T08:41:49.285Z,1.33
2023-02-02T08:44:19.627Z,1.30
2023-02-02T08:46:49.697Z,1.40
2023-02-02T08:49:19.603Z,1.27
2023-02-02T08:51:49.411Z,1.50
2023-02-02T08:54:19.220Z,1.17
2023-02-02T08:56:49.181Z,1.25
2023-02-02T08:59:18.955Z,1.48
2023-02-02T09:01:49.136Z,1.05
2023-02-02T09:04:19.279Z,1.30
2023-02-02T09:06:49.265Z,1.13
2023-02-02T09:09:19.513Z,1.58
2023-02-02T09:11:49.555Z,1.13
2023-02-02T09:14:19.578Z,1.17
2023-02-02T09:16:49.724Z,1.60
2023-02-02T09:19:19.577Z,1.38
2023-02-02T09:21:51.846Z,1.65
2023-02-02T09:24:21.982Z,1.27
2023-02-02T09:26:52.010Z,1.17
2023-02-02T09:29:24.382Z,1.30
2023-02-02T09:31:54.533Z,1.15
2023-02-02T09:34:24.569Z,0.90
2023-02-02T09:36:55.490Z,1.38
2023-02-02T09:39:25.667Z,1.23
2023-02-02T09:42:13.826Z,1.20
2023-02-02T09:45:10.559Z,1.30
2023-02-02T09:48:02.716Z,1.30
2023-02-02T09:50:55.145Z,1.20
2023-02-02T09:53:33.111Z,1.10
2023-02-02T09:56:08.726Z,1.20
2023-02-02T09:58:48.813Z,1.23
2023-02-02T10:01:24.450Z,1.20
2023-02-02T10:04:05.073Z,1.20
2023-02-02T10:06:41.220Z,1.15
2023-02-02T10:09:17.458Z,0.85
2023-02-02T10:12:27.357Z,1.15
2023-02-02T10:15:13.852Z,1.40
2023-02-02T10:18:06.680Z,1.42
2023-02-02T10:20:39.279Z,2.03
2023-02-02T10:23:37.564Z,1.92
2023-02-02T10:26:10.528Z,2.55
2023-02-02T10:29:04.054Z,1.80
2023-02-02T10:31:34.200Z,1.35
2023-02-02T10:34:43.723Z,1.73
2023-02-02T10:37:22.238Z,1.50
2023-02-02T10:40:04.540Z,2.30
2023-02-02T10:43:16.337Z,2.10
2023-02-02T10:45:50.160Z,1.77
2023-02-02T10:48:32.270Z,1.77
2023-02-02T10:51:09.426Z,2.03
2023-02-02T10:53:40.223Z,1.45
2023-02-02T10:56:14.857Z,1.50
2023-02-02T10:58:56.538Z,2.45
2023-02-02T11:01:26.805Z,1.90
2023-02-02T11:04:14.942Z,1.90
2023-02-02T11:06:50.880Z,1.83
2023-02-02T11:09:44.074Z,2.13
2023-02-02T11:12:34.371Z,1.75
2023-02-02T11:15:08.515Z,1.50
2023-02-02T11:17:39.486Z,1.65
2023-02-02T11:20:36.080Z,1.30
2023-02-02T11:23:09.622Z,1.20
2023-02-02T11:25:40.816Z,1.80
2023-02-02T11:28:28.487Z,1.40
2023-02-02T11:30:59.328Z,1.17
2023-02-02T11:33:36.095Z,1.20
2023-02-02T11:36:24.271Z,0.82
2023-02-02T11:39:23.393Z,0.90
2023-02-02T11:41:59.803Z,0.80
2023-02-02T11:44:33.484Z,1.00
2023-02-02T11:47:06.717Z,0.77
2023-02-02T11:49:45.064Z,0.80
2023-02-02T11:52:26.424Z,0.70
2023-02-02T11:55:03.778Z,0.82
2023-02-02T11:57:33.873Z,1.00
2023-02-02T12:00:13.587Z,0.80
2023-02-02T12:02:50.856Z,1.17
2023-02-02T12:05:24.769Z,0.70
2023-02-02T12:07:55.782Z,0.88
2023-02-02T12:10:38.955Z,0.75
2023-02-02T12:13:31.018Z,0.63
2023-02-02T12:16:28.289Z,1.30
2023-02-02T12:19:34.165Z,1.52
2023-02-02T12:22:12.143Z,1.30
2023-02-02T12:25:04.086Z,1.38
2023-02-02T12:27:58.434Z,1.00
2023-02-02T12:30:56.203Z,1.20
2023-02-02T12:33:49.493Z,1.10
2023-02-02T12:36:41.306Z,0.82
2023-02-02T12:39:36.157Z,1.23
2023-02-02T12:42:27.188Z,0.63
2023-02-02T12:45:03.601Z,0.50
2023-02-02T12:47:57.588Z,0.90
2023-02-02T12:50:50.205Z,0.80
2023-02-02T12:54:33.873Z,0.80
2023-02-02T12:57:28.285Z,0.60
2023-02-02T12:59:58.261Z,0.50
2023-02-02T13:03:02.246Z,0.52
2023-02-02T13:05:49.935Z,0.70
2023-02-02T13:08:28.130Z,0.57
2023-02-02T13:13:38.709Z,0.60
2023-02-02T13:16:15.444Z,0.60
2023-02-02T13:18:54.795Z,0.40
2023-02-02T13:21:27.625Z,0.50
2023-02-02T13:24:06.000Z,0.95
2023-02-02T13:26:45.497Z,0.95
2023-02-02T13:29:29.698Z,0.95
2023-02-02T13:32:40.720Z,0.93
2023-02-02T13:35:35.637Z,1.00
2023-02-02T13:38:22.880Z,1.23
2023-02-02T13:40:57.484Z,1.08
2023-02-02T13:43:39.694Z,1.13
2023-02-02T13:46:46.996Z,1.15
2023-02-02T13:49:32.838Z,1.20
2023-02-02T13:52:36.431Z,1.00
2023-02-02T13:55:36.271Z,1.30
2023-02-02T13:58:29.983Z,1.55
2023-02-02T14:01:06.687Z,1.13
2023-02-02T14:03:45.523Z,1.50
2023-02-02T14:06:18.788Z,1.33
2023-02-02T14:08:51.027Z,1.00
2023-02-02T14:11:43.724Z,1.45
2023-02-02T14:14:34.429Z,1.50
2023-02-02T14:17:17.759Z,1.17
2023-02-02T14:20:00.262Z,1.30
2023-02-02T14:22:42.116Z,0.82
2023-02-02T14:25:40.645Z,0.50
2023-02-02T14:28:14.419Z,0.57
2023-02-02T14:30:44.449Z,0.70
2023-02-02T14:33:28.590Z,0.30
2023-02-02T14:36:02.171Z,0.40
2023-02-02T14:38:38.405Z,0.30
2023-02-02T14:41:13.763Z,0.30
2023-02-02T14:43:52.101Z,0.30
2023-02-02T14:46:35.492Z,0.47
2023-02-02T14:49:05.710Z,0.30
2023-02-02T14:51:47.168Z,0.17
2023-02-02T14:54:26.952Z,0.30
2023-02-02T14:57:22.273Z,0.20
2023-02-02T14:59:56.217Z,0.35
2023-02-02T15:02:34.618Z,0.30
2023-02-02T15:05:26.036Z,0.30
2023-02-02T15:08:08.405Z,0.30
2023-02-02T15:11:26.278Z,0.30
2023-02-02T15:14:08.259Z,0.25
2023-02-02T15:16:40.157Z,0.30
2023-02-02T15:19:22.219Z,0.55
2023-02-02T15:21:54.542Z,0.20
2023-02-02T15:24:29.478Z,0.20
2023-02-02T15:27:04.162Z,0.65
2023-02-02T15:29:37.503Z,0.28
2023-02-02T15:32:09.552Z,0.30
2023-02-02T15:37:14.927Z,0.30
2023-02-02T15:39:50.135Z,0.40
2023-02-02T15:42:42.689Z,0.30
2023-02-02T15:45:49.157Z,0.20
2023-02-02T15:48:32.029Z,0.20
2023-02-02T15:51:15.599Z,0.60
2023-02-02T15:53:45.567Z,0.47
2023-02-02T15:56:31.129Z,0.20
2023-02-02T15:59:02.850Z,0.32
2023-02-02T16:04:08.374Z,0.30
2023-02-02T16:06:39.825Z,0.55
2023-02-02T16:09:24.241Z,0.30
2023-02-02T16:11:55.495Z,0.30
2023-02-02T16:14:25.587Z,0.30
2023-02-02T16:17:11.242Z,0.30
2023-02-02T16:19:45.257Z,0.20
2023-02-02T16:22:24.989Z,0.22
2023-02-02T16:24:58.356Z,0.38
2023-02-02T16:27:30.826Z,0.30
2023-02-02T16:30:06.119Z,0.20
2023-02-02T16:32:40.042Z,0.30
2023-02-02T16:35:36.027Z,0.20
2023-02-02T16:38:26.167Z,0.30
2023-02-02T16:41:14.051Z,0.30
2023-02-02T16:43:45.851Z,0.25
2023-02-02T16:46:18.607Z,0.40
2023-02-02T16:49:02.063Z,0.25
2023-02-02T16:51:34.209Z,0.20
2023-02-02T16:54:06.977Z,0.20
2023-02-02T16:56:41.064Z,0.50
2023-02-02T16:59:29.312Z,0.30
2023-02-02T17:02:22.193Z,0.30
2023-02-02T17:05:02.359Z,0.30
2023-02-02T17:07:34.975Z,0.30
2023-02-02T17:10:16.673Z,0.30
2023-02-02T17:12:47.635Z,0.20
2023-02-02T17:15:20.472Z,0.25
2023-02-02T17:17:51.017Z,0.20
2023-02-02T17:20:21.769Z,0.20
2023-02-02T17:23:02.237Z,0.30
2023-02-02T17:25:43.057Z,0.20
2023-02-02T17:28:15.664Z,0.30
2023-02-02T17:30:48.691Z,0.43
2023-02-02T17:33:20.376Z,0.28
2023-02-02T17:35:55.412Z,0.40
2023-02-02T17:38:28.881Z,0.20
2023-02-02T17:41:03.205Z,0.40
2023-02-02T17:43:34.759Z,0.30
2023-02-02T17:48:35.631Z,0.25
2023-02-02T17:51:08.256Z,0.30
2023-02-02T17:53:38.269Z,0.30
2023-02-02T17:56:08.337Z,0.32
2023-02-02T17:58:38.346Z,0.40
2023-02-02T18:01:09.589Z,0.60
2023-02-02T18:03:42.037Z,0.30
2023-02-02T18:06:13.149Z,0.30
2023-02-02T18:08:43.367Z,0.30
2023-02-02T18:11:15.439Z,0.20
2023-02-02T18:13:45.800Z,0.40
2023-02-02T18:16:15.854Z,0.60
2023-02-02T18:18:46.860Z,0.50
2023-02-02T18:21:16.978Z,0.30
2023-02-02T18:23:50.047Z,0.40
2023-02-02T18:26:23.492Z,0.30
2023-02-02T18:28:54.552Z,0.30
2023-02-02T18:31:25.108Z,0.30
2023-02-02T18:33:55.579Z,1.02
2023-02-02T18:36:25.881Z,0.63
2023-02-02T18:38:57.620Z,0.50
2023-02-02T18:43:57.346Z,0.40
2023-02-02T18:46:28.048Z,0.60
2023-02-02T18:48:58.256Z,0.47
2023-02-02T18:51:28.331Z,0.45
2023-02-02T18:54:01.457Z,0.30
2023-02-02T18:56:31.880Z,0.70
2023-02-02T18:59:01.986Z,0.22
2023-02-02T19:01:32.106Z,0.50
2023-02-02T19:04:02.384Z,0.50
2023-02-02T19:06:50.770Z,0.57
2023-02-02T19:09:22.734Z,0.40
2023-02-02T19:14:39.656Z,0.40
2023-02-02T19:17:23.249Z,0.65
2023-02-02T19:19:53.540Z,0.40
2023-02-02T19:22:27.891Z,0.35
2023-02-02T19:25:00.062Z,0.43
2023-02-02T19:27:32.769Z,0.40
2023-02-02T19:30:05.827Z,0.30
2023-02-02T19:32:37.223Z,1.00
2023-02-02T19:35:17.055Z,0.60
2023-02-02T19:37:48.720Z,0.95
2023-02-02T19:43:00.914Z,0.40
2023-02-02T19:45:34.254Z,0.90
2023-02-02T19:48:15.578Z,1.20
2023-02-02T19:50:46.645Z,0.88
2023-02-02T19:53:16.596Z,0.55
2023-02-02T19:55:46.510Z,0.30
2023-02-02T19:58:21.098Z,0.80
2023-02-02T20:00:57.231Z,0.90
2023-02-02T20:03:43.968Z,2.60
2023-02-02T20:06:20.562Z,3.55
2023-02-02T20:08:50.785Z,1.70
2023-02-02T20:11:40.087Z,1.67
2023-02-02T20:14:29.663Z,0.82
2023-02-02T20:17:33.046Z,1.52
2023-02-02T20:20:03.315Z,1.80
2023-02-02T20:22:34.662Z,0.82
2023-02-02T20:25:10.182Z,0.38
2023-02-02T20:27:40.186Z,1.27
2023-02-02T20:30:26.637Z,0.80
2023-02-02T20:32:59.797Z,2.90
2023-02-02T20:35:46.494Z,2.00
2023-02-02T20:38:36.043Z,1.00
2023-02-02T20:41:07.483Z,0.93
2023-02-02T20:43:37.505Z,14.38
2023-02-02T20:46:07.693Z,3.53
2023-02-02T20:48:37.874Z,0.70
2023-02-02T20:51:08.043Z,1.00
2023-02-02T20:53:38.072Z,0.50
2023-02-02T20:56:08.312Z,0.50
2023-02-02T20:58:38.489Z,0.45
2023-02-02T21:01:09.280Z,0.60
2023-02-02T21:03:39.518Z,0.60
2023-02-02T21:06:09.739Z,0.50
2023-02-02T21:08:40.483Z,0.60
2023-02-02T21:11:11.736Z,0.60
2023-02-02T21:13:41.741Z,1.58
2023-02-02T21:16:11.553Z,6.10
2023-02-02T21:18:41.732Z,19.70
2023-02-02T21:21:11.573Z,33.78
2023-02-02T21:23:43.465Z,16.63
2023-02-02T21:28:52.626Z,4.95
2023-02-02T21:31:23.011Z,4.15
2023-02-02T21:33:54.310Z,1.33
2023-02-02T21:36:59.885Z,0.60
2023-02-02T21:39:36.646Z,2.63
2023-02-02T21:42:09.791Z,2.20
2023-02-02T21:45:08.939Z,2.22
2023-02-02T21:47:55.344Z,2.10
2023-02-02T21:50:41.804Z,3.95
2023-02-02T21:53:22.319Z,1.90
2023-02-02T21:56:01.969Z,1.88
2023-02-02T21:58:41.551Z,1.63
2023-02-02T22:01:37.923Z,2.30
2023-02-02T22:04:38.461Z,2.95
2023-02-02T22:07:16.904Z,2.83
2023-02-02T22:09:49.675Z,2.78
2023-02-02T22:12:23.490Z,2.80
2023-02-02T22:15:01.783Z,2.15
2023-02-02T22:17:41.057Z,1.88
2023-02-02T22:20:17.012Z,2.72
2023-02-02T22:22:49.331Z,3.03
2023-02-02T22:25:19.496Z,2.10
2023-02-02T22:27:54.448Z,1.60
2023-02-02T22:30:39.577Z,1.50
2023-02-02T22:33:12.021Z,1.35
2023-02-02T22:35:43.522Z,1.20
2023-02-02T22:38:19.339Z,5.50
2023-02-02T22:40:51.877Z,11.68
2023-02-02T22:43:23.023Z,5.97
2023-02-02T22:45:53.299Z,2.65
2023-02-02T22:48:23.386Z,2.22
2023-02-02T22:50:54.338Z,1.05
2023-02-02T22:53:24.880Z,1.60
2023-02-02T22:55:57.740Z,5.97
2023-02-02T22:58:27.984Z,1.63
2023-02-02T23:00:58.067Z,1.90
2023-02-02T23:03:28.230Z,1.13
2023-02-02T23:05:58.351Z,0.90
2023-02-02T23:08:28.352Z,1.10
2023-02-02T23:10:58.322Z,1.13
2023-02-02T23:13:28.371Z,1.30
2023-02-02T23:15:58.416Z,1.33
2023-02-02T23:18:28.498Z,1.40
2023-02-02T23:20:58.456Z,1.73
2023-02-02T23:23:28.460Z,1.10
2023-02-02T23:25:59.164Z,1.10
2023-02-02T23:28:29.222Z,1.65
2023-02-02T23:31:00.376Z,1.33
2023-02-02T23:33:30.619Z,1.38
2023-02-02T23:36:00.747Z,1.15
2023-02-02T23:38:30.811Z,1.00
2023-02-02T23:41:01.547Z,2.03
2023-02-02T23:43:33.007Z,1.60
2023-02-02T23:46:03.016Z,2.15
2023-02-02T23:48:33.330Z,0.90
2023-02-02T23:51:03.669Z,0.70
2023-02-02T23:53:33.917Z,1.00
2023-02-02T23:56:03.874Z,1.20
2023-02-02T23:58:33.688Z,1.33
